Pagrindinis puslapis
METAR-TAF:

METAR-TAF

Oro uostai :

Ki Vestas, Florida, Jungtinės Amerikos Valstijos

platuma: 24-34-46N, ilguma: 081-41-02W, Aukštis: 1 m

Dabartinis oras

Ataskaita buvo paskelbta 1 valandą ir 10 minutes, ne 23:53 UTC
Vėjas 9 kt iš Šiaurės Vakarų
Temperatūra 27°C
Drėgmė 74%
Slėgis 1012 hPa
Matomumas: 16.1 km
Giedras dangus

METAR: KNQX 092353Z AUTO 31009KT 10SM CLR 27/22 A2988 RMK AO2 SLP117 T02670217 10306 20267 53004 $

Laikas: 21:03 (01:03 UTC)

Prognozė

Prognozė galioja nuo 09 metu 23 UTC su 10 metu 23 UTC
Vėjas 10 kt iš Vakarų/Šiaurės Vakarų
Matomumas 10 km arba daugiau
Mažai debesys ne aukštis 3000 ft
Nuo 10 metu 0300 UTC
Vėjas 5 kt nuo kintamojo kryptimis
Matomumas 10 km arba daugiau
Mažai debesys ne aukštis 25000 ft
Nuo 10 metu 1300 UTC
Vėjas 8 kt iš Vakarų
Matomumas: 1011 m
Giedras dangus

TAF: KNQX 0923/1023 29010KT 9999 FEW030 QNH2982INS FM100300 VRB05KT 9999 FEW250 QNH2984INS FM101300 26008KT 9999 SKC QNH2983INS AUTOMATED SENSOR METWATCH 0918 TIL 1011 T24/1011Z T31/1019Z FN00210

Orai ataskaitas ir orų prognozės (METAR, TAF).

turimą stotys yra geltonos ir raudonos taškus žemėlapyje.

Perkelti pele per norėdami pamatyti stoties vardą.

Tada spustelėkite, norėdami matyti oro stebėjimo ir prognozės.

Norėdami pakeisti žemėlapį: spustelėkite ant žalios mygtukų su juodo kryžiaus žemyn,; žalią mygtuką su brūkšneliu, jei norite nutolinti; arba žalių rodyklių gretimoms žemėlapius.


METAR-TAF: